Time;durP1;ratioP1;P1;durP2;ratioP2;P2;SDS_P1;SDS_P2;PMS_P1;PMS_P2;Temp;Humidity;BMP_temperature;BMP_pressure;BME280_temperature;BME280_humidity;BME280_pressure;Samples;Min_cycle;Max_cycle;Signal;HPM_P1;HPM_P2
2021/12/08 00:02:16;;;;;;;7.28;2.55;;;;;;;-14.62;87.97;101252.69;5054346;28;20515;-79
2021/12/08 00:04:42;;;;;;;6.93;2.30;;;;;;;-14.65;87.91;101249.44;5053698;28;20704;-76
2021/12/08 00:07:08;;;;;;;3.28;2.17;;;;;;;-14.69;87.81;101258.50;5054215;28;20033;-78
2021/12/08 00:15:05;;;;;;;4.55;2.35;;;;;;;-14.77;87.98;101260.78;5053797;28;20136;-78
2021/12/08 00:17:30;;;;;;;5.32;3.15;;;;;;;-14.81;87.73;101262.78;5053081;28;20116;-78
2021/12/08 00:20:01;;;;;;;4.63;2.10;;;;;;;-14.84;87.69;101256.91;5053911;28;20124;-78
2021/12/08 00:22:26;;;;;;;4.32;2.67;;;;;;;-14.85;87.79;101258.69;5053585;28;20499;-78
2021/12/08 00:24:52;;;;;;;2.65;1.90;;;;;;;-14.88;87.76;101265.94;5053787;28;20182;-78
2021/12/08 00:27:18;;;;;;;4.43;2.65;;;;;;;-14.93;87.88;101259.19;5031155;28;20094;-78
2021/12/08 00:29:43;;;;;;;6.60;2.40;;;;;;;-14.95;87.87;101261.06;5028031;28;20067;-78
2021/12/08 00:32:09;;;;;;;11.10;3.38;;;;;;;-14.97;87.75;101270.88;5054115;28;20045;-76
2021/12/08 00:34:35;;;;;;;2.92;2.28;;;;;;;-15.01;87.70;101269.41;5053501;28;20037;-76
2021/12/08 00:37:02;;;;;;;4.38;2.28;;;;;;;-15.02;87.81;101272.97;5035722;28;20044;-76
2021/12/08 00:39:27;;;;;;;6.97;2.45;;;;;;;-15.06;87.70;101274.13;5051133;28;20033;-76
2021/12/08 00:41:53;;;;;;;5.63;2.78;;;;;;;-15.10;87.81;101283.16;5052078;28;20051;-76
2021/12/08 00:44:18;;;;;;;2.75;2.00;;;;;;;-15.09;87.78;101289.28;5084328;28;20036;-76
2021/12/08 00:46:44;;;;;;;3.30;1.67;;;;;;;-15.13;87.68;101285.16;5052155;28;20035;-76
2021/12/08 00:49:12;;;;;;;3.42;2.38;;;;;;;-15.15;87.66;101287.88;5052450;28;20056;-77
2021/12/08 00:51:37;;;;;;;4.47;2.35;;;;;;;-15.17;87.72;101288.94;5052607;28;20040;-76
2021/12/08 00:54:03;;;;;;;7.28;3.25;;;;;;;-15.18;87.52;101289.88;5068216;28;20037;-77
2021/12/08 00:56:29;;;;;;;4.18;2.78;;;;;;;-15.20;87.87;101299.66;5084117;28;20442;-76
2021/12/08 00:58:55;;;;;;;4.07;2.47;;;;;;;-15.20;87.72;101294.41;5052845;28;20094;-76
2021/12/08 01:01:22;;;;;;;5.32;2.67;;;;;;;-15.22;87.62;101302.41;5052839;28;20397;-77
2021/12/08 01:03:49;;;;;;;4.25;2.35;;;;;;;-15.24;87.70;101299.03;5051725;28;20410;-76
2021/12/08 01:06:17;;;;;;;4.68;3.15;;;;;;;-15.23;87.68;101301.56;5052966;28;20043;-76
2021/12/08 01:08:43;;;;;;;4.78;2.97;;;;;;;-15.20;87.65;101315.44;5035504;28;20037;-76
2021/12/08 01:11:13;;;;;;;8.55;3.08;;;;;;;-15.19;87.67;101310.09;5052941;28;20123;-76
2021/12/08 01:13:39;;;;;;;7.00;2.30;;;;;;;-15.16;87.63;101306.41;5052636;28;20083;-76
2021/12/08 01:16:05;;;;;;;6.70;3.22;;;;;;;-15.15;87.70;101308.09;5053151;28;20064;-76
2021/12/08 01:18:31;;;;;;;5.25;2.35;;;;;;;-15.13;87.72;101314.94;5052218;28;20518;-77
2021/12/08 01:21:00;;;;;;;9.90;3.30;;;;;;;-15.12;87.70;101319.25;5084400;28;20123;-76
2021/12/08 01:23:26;;;;;;;4.05;2.20;;;;;;;-15.07;87.65;101314.56;5052465;28;20450;-76
2021/12/08 01:25:53;;;;;;;4.85;2.60;;;;;;;-15.02;87.80;101319.53;5052230;28;20048;-76
2021/12/08 01:28:20;;;;;;;8.38;3.35;;;;;;;-14.99;87.81;101325.41;5049139;28;20041;-76
2021/12/08 01:30:48;;;;;;;3.72;2.38;;;;;;;-14.95;87.97;101326.91;5052433;28;20649;-76
2021/12/08 01:33:14;;;;;;;1.63;1.52;;;;;;;-14.92;87.88;101331.16;5052232;28;20041;-76
2021/12/08 01:35:40;;;;;;;5.75;2.05;;;;;;;-14.87;87.91;101322.94;5052654;28;20044;-76
2021/12/08 01:38:06;;;;;;;5.85;2.70;;;;;;;-14.83;87.97;101333.16;5052212;28;20040;-76
2021/12/08 01:40:31;;;;;;;7.40;2.42;;;;;;;-14.79;88.05;101331.16;5033260;28;20040;-76
2021/12/08 01:42:59;;;;;;;2.92;1.83;;;;;;;-14.76;88.16;101325.69;5050271;28;20052;-76
2021/12/08 01:48:15;;;;;;;4.07;1.98;;;;;;;-14.71;88.13;101334.16;5052740;28;20036;-76
2021/12/08 01:50:43;;;;;;;2.05;1.75;;;;;;;-14.66;88.21;101337.31;5070764;28;20052;-76
2021/12/08 01:53:09;;;;;;;3.65;2.80;;;;;;;-14.62;88.29;101344.06;5063429;28;20037;-76
2021/12/08 01:55:36;;;;;;;7.18;3.03;;;;;;;-14.61;88.20;101335.19;5064518;28;20402;-77
2021/12/08 01:58:03;;;;;;;5.55;2.58;;;;;;;-14.57;88.28;101341.97;5061447;28;20068;-78
2021/12/08 02:00:37;;;;;;;6.57;1.85;;;;;;;-14.53;88.35;101342.59;5050645;28;20044;-77
2021/12/08 02:03:03;;;;;;;2.10;1.80;;;;;;;-14.52;88.36;101345.13;5083487;28;20041;-77
2021/12/08 02:05:29;;;;;;;3.70;2.25;;;;;;;-14.51;88.26;101346.81;5067428;28;20040;-77
2021/12/08 02:07:55;;;;;;;2.58;2.05;;;;;;;-14.50;88.43;101350.31;5066468;28;20045;-77
2021/12/08 02:10:21;;;;;;;6.30;2.65;;;;;;;-14.50;88.43;101350.31;5050045;28;20036;-77
2021/12/08 02:12:47;;;;;;;3.35;2.35;;;;;;;-14.50;88.49;101345.03;5045561;28;20114;-77
2021/12/08 02:15:14;;;;;;;3.50;1.95;;;;;;;-14.51;88.39;101345.97;5050158;28;20041;-77
2021/12/08 02:17:40;;;;;;;3.63;1.63;;;;;;;-14.53;88.50;101348.72;5048763;28;20036;-77
2021/12/08 02:20:09;;;;;;;4.70;2.38;;;;;;;-14.56;88.54;101351.56;5050603;28;20095;-77
2021/12/08 02:22:34;;;;;;;5.07;2.00;;;;;;;-14.57;88.43;101344.63;5049830;28;20045;-77
2021/12/08 02:25:00;;;;;;;4.07;2.20;;;;;;;-14.59;88.46;101345.63;5049709;28;20410;-77
2021/12/08 02:27:27;;;;;;;3.20;1.85;;;;;;;-14.60;88.52;101352.69;5045215;28;20639;-77
2021/12/08 02:30:03;;;;;;;2.75;1.70;;;;;;;-14.63;88.49;101358.16;5048416;28;20041;-78
2021/12/08 02:48:36;;;;;;;4.55;2.15;;;;;;;-14.87;88.57;101357.16;5050761;28;20119;-77
2021/12/08 02:51:02;;;;;;;3.80;1.90;;;;;;;-14.89;88.32;101353.78;5066077;28;20136;-77
2021/12/08 02:53:27;;;;;;;2.42;2.05;;;;;;;-14.91;88.30;101350.41;5051106;28;20033;-78
2021/12/08 02:55:53;;;;;;;2.15;1.92;;;;;;;-14.97;88.24;101354.28;5050693;28;20491;-77
2021/12/08 02:58:19;;;;;;;5.90;2.35;;;;;;;-15.01;88.27;101343.09;5083223;28;20039;-78
2021/12/08 03:00:53;;;;;;;4.07;2.28;;;;;;;-15.02;88.11;101351.09;5050500;28;20040;-78
2021/12/08 03:03:19;;;;;;;2.22;1.55;;;;;;;-15.07;88.23;101351.41;5065754;28;20037;-77
2021/12/08 03:05:45;;;;;;;3.05;2.30;;;;;;;-15.09;88.28;101353.31;5076064;28;20044;-77
2021/12/08 03:08:12;;;;;;;4.18;2.67;;;;;;;-15.13;88.13;101356.22;5050470;28;20047;-77
2021/12/08 03:10:43;;;;;;;3.63;2.50;;;;;;;-15.17;88.17;101358.19;5050337;28;20135;-78
2021/12/08 03:13:09;;;;;;;5.50;2.97;;;;;;;-15.20;88.18;101358.41;5048947;28;20045;-77
2021/12/08 03:15:35;;;;;;;7.10;3.15;;;;;;;-15.23;88.19;101367.34;5066010;28;20094;-77
2021/12/08 03:18:01;;;;;;;2.42;2.22;;;;;;;-15.27;88.25;101360.59;5065022;28;20037;-77
2021/12/08 03:20:38;;;;;;;13.45;2.65;;;;;;;-15.29;87.93;101364.25;5048889;28;20051;-77
2021/12/08 03:23:10;;;;;;;5.07;2.47;;;;;;;-15.33;88.01;101354.88;5048790;28;20044;-78
2021/12/08 03:25:40;;;;;;;5.18;3.13;;;;;;;-15.36;88.08;101361.16;5050300;28;20062;-77
2021/12/08 03:28:21;;;;;;;4.53;2.40;;;;;;;-15.38;88.07;101356.94;5048807;28;20033;-77
2021/12/08 03:31:16;;;;;;;6.40;3.15;;;;;;;-15.41;88.06;101365.03;5050141;28;20055;-78
2021/12/08 03:33:36;;;;;;;6.65;3.40;;;;;;;-15.44;88.10;101365.22;5062798;28;20136;-77
2021/12/08 03:36:02;;;;;;;5.03;3.15;;;;;;;-15.44;88.11;101368.72;5048789;28;20132;-78
2021/12/08 03:38:28;;;;;;;3.97;2.38;;;;;;;-15.45;87.88;101374.03;5049216;28;20040;-77
2021/12/08 03:40:56;;;;;;;6.20;3.00;;;;;;;-15.47;87.97;101366.25;5049312;28;20056;-77
2021/12/08 03:43:22;;;;;;;6.32;3.13;;;;;;;-15.47;87.87;101379.41;5047894;28;20060;-78
2021/12/08 03:45:49;;;;;;;2.22;1.92;;;;;;;-15.48;88.08;101368.97;5049434;28;20080;-77
2021/12/08 03:48:27;;;;;;;8.45;2.88;;;;;;;-15.50;88.11;101376.97;5081801;28;20037;-79
2021/12/08 03:50:53;;;;;;;6.05;2.55;;;;;;;-15.51;88.13;101385.81;5064479;28;20044;-77
2021/12/08 03:53:19;;;;;;;5.55;2.47;;;;;;;-15.52;88.10;101399.91;5047977;28;20033;-77
2021/12/08 03:55:47;;;;;;;5.65;2.72;;;;;;;-15.55;88.25;101390.41;5047769;28;20048;-77
2021/12/08 03:58:13;;;;;;;3.47;2.97;;;;;;;-15.58;88.11;101392.41;5081626;28;20041;-77
2021/12/08 04:00:40;;;;;;;6.15;3.55;;;;;;;-15.61;88.27;101398.72;5048474;28;20075;-77
2021/12/08 04:03:07;;;;;;;6.15;2.63;;;;;;;-15.64;88.08;101396.28;5064841;28;20049;-77
2021/12/08 04:08:15;;;;;;;2.83;2.28;;;;;;;-15.70;88.21;101401.91;5048406;28;20507;-77
2021/12/08 04:10:42;;;;;;;4.55;2.45;;;;;;;-15.71;88.11;101409.91;5036806;28;20050;-77
2021/12/08 04:13:08;;;;;;;4.53;3.22;;;;;;;-15.73;88.09;101417.88;5065196;28;20346;-77
2021/12/08 04:15:34;;;;;;;5.68;3.03;;;;;;;-15.76;88.04;101412.81;5047501;28;20623;-77
2021/12/08 04:17:59;;;;;;;3.22;2.70;;;;;;;-15.76;87.88;101411.97;5054779;28;20091;-75
2021/12/08 04:20:31;;;;;;;4.35;3.67;;;;;;;-15.79;88.09;101418.28;5049939;28;20044;-74
2021/12/08 04:22:58;;;;;;;5.25;2.47;;;;;;;-15.80;87.92;101418.34;5048834;28;20507;-77
2021/12/08 04:25:30;;;;;;;5.78;2.88;;;;;;;-15.82;87.99;101423.69;5050488;28;20044;-79
2021/12/08 04:27:58;;;;;;;6.40;2.47;;;;;;;-15.80;87.94;101426.22;5048257;28;20029;-78
2021/12/08 04:30:49;;;;;;;3.97;2.97;;;;;;;-15.83;88.00;101422.00;5050467;28;20044;-79
2021/12/08 04:33:15;;;;;;;3.80;3.10;;;;;;;-15.83;87.82;101424.63;5056976;28;20481;-79
2021/12/08 04:35:42;;;;;;;6.72;3.00;;;;;;;-15.83;87.84;101424.63;5053617;28;20075;-77
2021/12/08 04:38:13;;;;;;;4.30;1.90;;;;;;;-15.83;87.85;101427.25;5053260;28;20036;-77
2021/12/08 04:43:51;;;;;;;3.50;2.03;;;;;;;-15.81;87.91;101430.63;5053220;28;20338;-77
2021/12/08 04:46:18;;;;;;;4.45;2.00;;;;;;;-15.77;87.89;101433.94;5050258;28;20073;-77
2021/12/08 05:09:33;;;;;;;15.90;2.65;;;;;;;-15.71;88.31;101452.81;5068421;28;20139;-76
2021/12/08 05:12:08;;;;;;;3.97;2.30;;;;;;;-15.74;88.19;101447.75;5052919;28;20032;-76
2021/12/08 05:14:43;;;;;;;6.32;2.90;;;;;;;-15.72;88.26;101452.91;5052447;28;20044;-76
2021/12/08 05:17:17;;;;;;;6.78;2.80;;;;;;;-15.73;88.34;101459.13;5051223;28;20045;-76
2021/12/08 05:19:47;;;;;;;4.13;2.67;;;;;;;-15.73;88.26;101467.84;5051646;28;20396;-76
2021/12/08 05:22:35;;;;;;;3.65;2.42;;;;;;;-15.75;88.14;101472.38;5052185;28;20495;-76
2021/12/08 05:25:05;;;;;;;3.85;2.30;;;;;;;-15.75;88.20;101469.72;5052126;28;20045;-76
2021/12/08 05:27:39;;;;;;;6.13;2.05;;;;;;;-15.76;88.20;101475.94;5049456;28;20040;-76
2021/12/08 05:30:09;;;;;;;5.53;2.63;;;;;;;-15.77;88.01;101484.75;5051003;28;20044;-76
2021/12/08 05:32:35;;;;;;;4.25;3.17;;;;;;;-15.74;87.85;101486.34;5067304;28;20041;-76
2021/12/08 05:35:01;;;;;;;4.53;3.00;;;;;;;-15.75;88.08;101490.78;5052243;28;20040;-77
2021/12/08 05:37:27;;;;;;;2.95;2.00;;;;;;;-15.77;88.15;101487.38;5051131;28;20049;-75
2021/12/08 05:39:54;;;;;;;3.95;2.30;;;;;;;-15.73;88.07;101496.78;5051342;28;20044;-76
2021/12/08 05:42:26;;;;;;;6.78;3.28;;;;;;;-15.68;88.10;101499.97;5050993;28;20041;-76
2021/12/08 05:44:52;;;;;;;3.03;1.65;;;;;;;-15.68;88.29;101501.75;5051809;28;20040;-76
2021/12/08 05:47:21;;;;;;;5.22;3.25;;;;;;;-15.67;88.14;101513.97;5066968;28;20032;-79
2021/12/08 05:49:48;;;;;;;5.10;3.00;;;;;;;-15.72;88.15;101508.13;5051856;28;20148;-78
2021/12/08 05:52:13;;;;;;;5.13;3.10;;;;;;;-15.71;88.17;101504.56;5051664;28;20479;-77
2021/12/08 05:54:45;;;;;;;3.35;2.03;;;;;;;-15.75;88.00;101503.06;5034412;28;20071;-77
2021/12/08 05:57:17;;;;;;;8.43;3.30;;;;;;;-15.77;88.20;101508.44;5082465;28;20040;-76
2021/12/08 05:59:44;;;;;;;5.53;3.35;;;;;;;-15.77;88.08;101507.56;5084367;28;20103;-77
2021/12/08 06:02:19;;;;;;;7.20;3.40;;;;;;;-15.75;88.06;101498.66;5050661;28;20041;-75
2021/12/08 06:04:45;;;;;;;2.47;2.20;;;;;;;-15.76;88.03;101504.84;5066993;28;20036;-76
2021/12/08 06:07:12;;;;;;;2.22;1.88;;;;;;;-15.78;88.04;101509.38;5051418;28;20036;-80
2021/12/08 06:09:39;;;;;;;5.90;2.80;;;;;;;-15.78;88.04;101512.00;5050560;28;20102;-75
2021/12/08 06:12:08;;;;;;;3.47;2.67;;;;;;;-15.78;88.11;101519.03;5050230;28;20089;-76
2021/12/08 06:14:34;;;;;;;8.00;2.35;;;;;;;-15.80;87.92;101513.84;5051364;28;20053;-76
2021/12/08 06:17:06;;;;;;;7.88;3.58;;;;;;;-15.78;87.93;101514.63;5051167;28;20040;-74
2021/12/08 06:19:33;;;;;;;5.20;3.33;;;;;;;-15.77;87.88;101516.31;5051599;28;20411;-75
2021/12/08 06:22:00;;;;;;;7.95;3.05;;;;;;;-15.80;87.90;101516.47;5051357;28;20033;-75
2021/12/08 06:24:25;;;;;;;3.15;2.17;;;;;;;-15.82;87.92;101526.22;5050293;28;20041;-75
2021/12/08 06:26:52;;;;;;;2.78;2.30;;;;;;;-15.82;87.92;101531.50;5051203;28;20075;-75
2021/12/08 06:29:19;;;;;;;7.43;2.30;;;;;;;-15.82;88.12;101531.50;5032710;28;20032;-75
2021/12/08 06:31:49;;;;;;;5.85;2.67;;;;;;;-15.80;87.91;101542.75;5051262;28;20041;-76
2021/12/08 06:34:21;;;;;;;9.93;3.15;;;;;;;-15.78;87.82;101540.91;5051155;28;20435;-75
2021/12/08 06:36:54;;;;;;;5.05;3.42;;;;;;;-15.74;87.95;101547.69;5033908;28;20044;-75
2021/12/08 06:39:33;;;;;;;2.42;1.92;;;;;;;-15.70;87.72;101550.97;5066858;28;20048;-76
2021/12/08 06:42:08;;;;;;;10.88;3.00;;;;;;;-15.68;87.75;101547.31;5083459;28;20492;-75
2021/12/08 06:44:40;;;;;;;6.80;4.18;;;;;;;-15.66;87.83;101548.06;5083785;28;20098;-76
2021/12/08 06:47:11;;;;;;;7.43;2.85;;;;;;;-15.63;87.58;101539.97;5083401;28;20039;-76
2021/12/08 06:49:37;;;;;;;4.78;2.42;;;;;;;-15.58;87.74;101545.81;5050206;28;20040;-75
2021/12/08 06:52:10;;;;;;;2.92;1.90;;;;;;;-15.56;87.73;101545.72;5051161;28;20090;-76
2021/12/08 06:54:51;;;;;;;10.45;3.58;;;;;;;-15.52;87.76;101549.84;5082428;28;20094;-76
2021/12/08 06:57:23;;;;;;;5.43;2.80;;;;;;;-15.50;87.87;101550.59;5051215;28;20040;-75
2021/12/08 07:00:15;;;;;;;9.80;3.35;;;;;;;-15.47;87.69;101541.66;5083630;28;20136;-76
2021/12/08 07:05:27;;;;;;;4.53;2.10;;;;;;;-15.35;87.73;101554.09;5049591;28;20503;-76
2021/12/08 07:07:57;;;;;;;3.03;2.72;;;;;;;-15.31;87.83;101566.13;5049586;28;20699;-76
2021/12/08 07:10:27;;;;;;;9.82;2.95;;;;;;;-15.30;87.81;101570.44;5082925;28;20036;-76
2021/12/08 07:13:09;;;;;;;3.45;2.20;;;;;;;-15.27;87.97;101567.63;5050524;28;20036;-76
2021/12/08 07:15:38;;;;;;;4.95;2.28;;;;;;;-15.20;87.95;101570.75;5049801;28;20653;-76
2021/12/08 07:18:08;;;;;;;8.90;3.23;;;;;;;-15.16;87.95;101577.50;5049291;28;20499;-76
2021/12/08 07:20:43;;;;;;;3.88;2.15;;;;;;;-15.13;87.83;101580.78;5049127;28;20293;-76
2021/12/08 07:23:17;;;;;;;4.88;2.65;;;;;;;-15.11;88.00;101578.06;5049262;28;20128;-76
2021/12/08 07:25:43;;;;;;;9.43;2.92;;;;;;;-15.10;87.95;101582.38;5049500;28;20044;-76
2021/12/08 07:28:09;;;;;;;6.50;2.83;;;;;;;-15.00;87.93;101592.28;5038442;28;20037;-76
2021/12/08 07:30:45;;;;;;;2.55;2.13;;;;;;;-14.54;87.78;101594.72;5049779;28;20033;-77
2021/12/08 07:33:11;;;;;;;9.20;2.72;;;;;;;-13.90;87.18;101590.50;5049063;28;20082;-77
2021/12/08 07:35:44;;;;;;;7.80;3.42;;;;;;;-13.38;86.90;101604.66;5050750;28;20442;-76
2021/12/08 07:38:13;;;;;;;9.07;3.88;;;;;;;-13.29;86.81;101599.63;5048999;28;20048;-77
2021/12/08 07:40:45;;;;;;;6.20;3.83;;;;;;;-13.18;87.07;101594.47;5050379;28;20060;-76
2021/12/08 07:43:16;;;;;;;5.90;3.90;;;;;;;-12.74;87.06;101597.59;5049022;28;20041;-76
2021/12/08 07:45:47;;;;;;;7.10;3.72;;;;;;;-12.08;86.74;101606.94;5050430;28;20072;-76
2021/12/08 07:48:18;;;;;;;13.00;4.32;;;;;;;-11.44;86.33;101600.34;5049956;28;20047;-76
2021/12/08 07:51:07;;;;;;;6.63;4.25;;;;;;;-11.06;86.14;101602.72;5050425;28;20033;-76
2021/12/08 07:53:34;;;;;;;4.20;3.13;;;;;;;-10.75;86.15;101606.50;5050414;28;20041;-75
2021/12/08 07:56:04;;;;;;;7.03;4.40;;;;;;;-10.46;85.76;101608.66;5065615;28;20090;-75
2021/12/08 07:58:32;;;;;;;4.13;3.58;;;;;;;-9.98;86.01;101609.16;5050088;28;20033;-75
2021/12/08 08:01:07;;;;;;;6.68;4.15;;;;;;;-9.33;85.87;101607.34;5050276;28;20044;-75
2021/12/08 08:03:34;;;;;;;3.97;3.38;;;;;;;-8.72;85.79;101613.59;5050114;28;20182;-75
2021/12/08 08:06:04;;;;;;;5.68;4.32;;;;;;;-8.14;85.70;101610.31;5053237;28;20051;-76
2021/12/08 08:08:32;;;;;;;5.28;3.67;;;;;;;-7.68;85.45;101607.84;5054015;28;20032;-75
2021/12/08 08:11:02;;;;;;;4.13;3.58;;;;;;;-7.42;84.69;101616.16;5053072;28;20523;-75
2021/12/08 08:13:28;;;;;;;9.63;4.65;;;;;;;-7.38;84.22;101624.69;5054018;28;20060;-76
2021/12/08 08:16:05;;;;;;;9.95;7.05;;;;;;;-7.05;84.54;101631.41;5052937;28;20052;-76
2021/12/08 08:18:34;;;;;;;9.65;6.00;;;;;;;-6.78;84.60;101626.16;5054409;28;20041;-75
2021/12/08 08:21:07;;;;;;;10.48;4.85;;;;;;;-6.71;84.82;101626.44;5053760;28;20036;-75
2021/12/08 08:23:32;;;;;;;9.35;5.13;;;;;;;-6.79;84.75;101636.97;5053826;28;20052;-75
2021/12/08 08:26:00;;;;;;;10.35;6.97;;;;;;;-7.44;84.90;101639.44;5052821;28;20040;-75
2021/12/08 08:28:26;;;;;;;10.18;5.82;;;;;;;-8.14;85.55;101651.09;5053417;28;20071;-75
2021/12/08 08:31:02;;;;;;;5.72;4.78;;;;;;;-8.71;85.89;101647.19;5052431;28;20032;-75
2021/12/08 08:33:28;;;;;;;12.43;6.07;;;;;;;-9.08;86.20;101649.50;5052545;28;20065;-75
2021/12/08 08:35:57;;;;;;;9.55;6.15;;;;;;;-9.43;86.07;101642.66;5052697;28;20101;-75
2021/12/08 08:38:31;;;;;;;14.63;6.93;;;;;;;-9.66;86.06;101646.38;5052257;28;20043;-75
2021/12/08 08:41:05;;;;;;;14.80;8.00;;;;;;;-9.82;86.07;101645.94;5035739;28;20036;-75
2021/12/08 08:43:31;;;;;;;11.38;7.40;;;;;;;-10.04;85.89;101649.47;5053521;28;20044;-77
2021/12/08 08:46:11;;;;;;;11.48;6.70;;;;;;;-10.23;85.75;101644.84;5052368;28;20048;-77
2021/12/08 08:48:41;;;;;;;11.73;8.15;;;;;;;-10.45;85.73;101650.97;5052124;28;20130;-76
2021/12/08 08:51:17;;;;;;;9.88;7.28;;;;;;;-10.62;85.68;101655.91;5053360;28;20041;-76
2021/12/08 08:53:49;;;;;;;13.15;7.00;;;;;;;-10.82;85.35;101655.66;5053604;28;20041;-76
2021/12/08 08:56:23;;;;;;;17.48;7.50;;;;;;;-11.03;85.25;101659.94;5053379;28;20131;-76
2021/12/08 08:58:53;;;;;;;9.23;4.97;;;;;;;-11.22;85.26;101659.66;5038081;28;20040;-76
2021/12/08 09:01:27;;;;;;;10.68;5.43;;;;;;;-11.33;85.15;101649.84;5053295;28;20041;-76
2021/12/08 09:04:00;;;;;;;9.63;7.18;;;;;;;-11.43;85.05;101654.16;5051299;28;20041;-76
2021/12/08 09:06:31;;;;;;;9.23;6.38;;;;;;;-11.54;84.66;101643.50;5049094;28;20040;-76
2021/12/08 09:08:57;;;;;;;10.57;6.18;;;;;;;-11.65;84.60;101641.66;5052874;28;20554;-77
2021/12/08 09:11:27;;;;;;;11.57;6.50;;;;;;;-11.75;84.32;101651.25;5068378;28;20037;-76
2021/12/08 09:14:00;;;;;;;11.52;5.95;;;;;;;-11.84;84.20;101647.47;5051205;28;20088;-76
2021/12/08 09:16:49;;;;;;;15.25;6.95;;;;;;;-11.88;84.32;101656.59;5048457;28;20040;-76
2021/12/08 09:19:20;;;;;;;11.13;6.28;;;;;;;-11.89;84.50;101657.56;5045527;28;20420;-76
2021/12/08 09:21:59;;;;;;;7.00;4.43;;;;;;;-11.94;84.23;101665.84;5077560;28;20045;-76
2021/12/08 09:24:34;;;;;;;3.50;3.20;;;;;;;-11.96;84.72;101665.13;5043908;28;20034;-76
2021/12/08 09:27:01;;;;;;;10.38;5.63;;;;;;;-11.98;84.60;101668.81;5051405;28;20510;-76
2021/12/08 09:29:44;;;;;;;5.47;4.07;;;;;;;-12.04;84.74;101671.91;5051413;28;20041;-76
2021/12/08 09:32:18;;;;;;;7.55;3.95;;;;;;;-12.11;84.35;101657.44;5052764;28;20041;-76
2021/12/08 09:34:57;;;;;;;4.78;3.03;;;;;;;-12.11;84.52;101663.56;5037034;28;20037;-76
2021/12/08 09:37:26;;;;;;;9.52;5.07;;;;;;;-12.10;84.60;101673.19;5052557;28;20071;-76
2021/12/08 09:39:58;;;;;;;7.97;5.22;;;;;;;-12.11;84.53;101660.09;5052539;28;20056;-76
2021/12/08 09:42:32;;;;;;;4.25;3.25;;;;;;;-12.12;84.74;101675.09;5052115;28;20045;-76
2021/12/08 09:45:03;;;;;;;6.95;4.22;;;;;;;-12.16;84.74;101678.91;5052511;28;20037;-76
2021/12/08 09:47:29;;;;;;;6.55;4.18;;;;;;;-12.22;84.90;101676.72;5050393;28;20076;-76
2021/12/08 09:49:57;;;;;;;8.68;4.65;;;;;;;-12.34;84.91;101680.22;5048603;28;20526;-75
2021/12/08 09:52:27;;;;;;;7.50;4.05;;;;;;;-12.39;85.03;101682.34;5052660;28;20178;-76
2021/12/08 09:54:54;;;;;;;9.43;5.88;;;;;;;-12.41;85.14;101674.53;5051660;28;20032;-76
2021/12/08 09:57:20;;;;;;;11.57;5.35;;;;;;;-12.44;85.16;101680.03;5051693;28;20450;-76
2021/12/08 09:59:47;;;;;;;4.30;3.85;;;;;;;-12.45;85.22;101688.91;5034475;28;20048;-76
2021/12/08 10:02:18;;;;;;;10.20;4.45;;;;;;;-12.40;85.33;101692.06;5034286;28;20037;-76
2021/12/08 10:04:44;;;;;;;8.05;4.88;;;;;;;-12.37;85.57;101691.84;5051992;28;20064;-76
2021/12/08 10:07:10;;;;;;;7.65;4.78;;;;;;;-12.33;85.54;101692.47;5052156;28;20127;-76
2021/12/08 10:09:36;;;;;;;4.20;3.53;;;;;;;-12.31;85.49;101680.03;5051873;28;20124;-79
2021/12/08 10:12:03;;;;;;;3.35;2.95;;;;;;;-12.25;85.69;101685.72;5050529;28;20041;-76
2021/12/08 10:14:29;;;;;;;4.38;3.33;;;;;;;-12.18;85.67;101696.69;5051345;28;20496;-77
2021/12/08 10:16:55;;;;;;;6.30;2.97;;;;;;;-12.12;85.86;101696.28;5052090;28;20048;-77
2021/12/08 10:19:22;;;;;;;5.43;3.25;;;;;;;-12.07;85.75;101691.50;5050723;28;20033;-77
2021/12/08 10:21:48;;;;;;;4.75;3.67;;;;;;;-12.03;85.84;101687.66;5051790;28;20036;-77
2021/12/08 10:24:18;;;;;;;5.70;2.80;;;;;;;-11.98;85.91;101688.16;5049920;28;20047;-77
2021/12/08 10:26:45;;;;;;;4.22;3.60;;;;;;;-11.91;86.23;101691.25;5034373;28;20120;-78
2021/12/08 10:29:11;;;;;;;4.95;3.15;;;;;;;-11.85;86.03;101687.28;5051019;28;20051;-77
2021/12/08 10:31:47;;;;;;;14.48;7.13;;;;;;;-11.80;86.41;101690.44;5051377;28;20040;-78
2021/12/08 10:36:55;;;;;;;13.48;9.07;;;;;;;-11.72;86.28;101683.63;5051334;28;20037;-76
2021/12/08 10:39:48;;;;;;;7.78;4.60;;;;;;;-11.71;86.50;101682.66;5051423;28;20413;-76
2021/12/08 10:42:31;;;;;;;9.20;4.78;;;;;;;-11.64;86.37;101681.25;5050145;28;20032;-77
2021/12/08 10:47:39;;;;;;;10.30;4.45;;;;;;;-11.58;86.46;101686.13;5066066;28;20095;-76
2021/12/08 10:55:54;;;;;;;6.10;5.15;;;;;;;-11.46;86.58;101688.78;5051350;28;20082;-78
2021/12/08 10:58:22;;;;;;;9.05;5.30;;;;;;;-11.44;86.66;101690.41;5049598;28;20044;-78
2021/12/08 11:00:48;;;;;;;11.07;6.38;;;;;;;-11.39;86.58;101690.91;5049920;28;20443;-79
2021/12/08 11:03:14;;;;;;;11.90;6.85;;;;;;;-11.35;86.75;101694.16;5033013;28;20075;-78
2021/12/08 11:06:02;;;;;;;12.05;7.05;;;;;;;-11.31;86.63;101699.09;5050594;28;20037;-78
2021/12/08 11:08:33;;;;;;;10.15;6.03;;;;;;;-11.30;86.71;101692.84;5065411;28;20033;-78
2021/12/08 11:11:10;;;;;;;8.98;6.15;;;;;;;-11.28;86.76;101693.59;5048384;28;20033;-77
2021/12/08 11:13:36;;;;;;;9.52;4.70;;;;;;;-11.25;86.79;101695.16;5050064;28;20068;-77
2021/12/08 11:16:05;;;;;;;12.07;5.18;;;;;;;-11.23;86.81;101697.69;5065941;28;20111;-77
2021/12/08 11:18:32;;;;;;;10.93;6.05;;;;;;;-11.25;86.78;101692.53;5049138;28;20041;-76
2021/12/08 11:21:05;;;;;;;16.95;7.50;;;;;;;-11.22;87.02;101691.44;5049145;28;20043;-77
2021/12/08 11:23:47;;;;;;;26.40;7.35;;;;;;;-11.18;86.92;101691.09;5042875;28;20045;-77
2021/12/08 11:26:14;;;;;;;11.48;4.95;;;;;;;-11.14;87.08;101684.59;5036603;28;20033;-77
2021/12/08 11:28:40;;;;;;;12.00;5.75;;;;;;;-11.11;87.08;101683.50;5080056;28;20041;-77
2021/12/08 11:31:13;;;;;;;13.02;5.25;;;;;;;-11.08;87.02;101678.00;5049419;28;20051;-77
2021/12/08 11:33:47;;;;;;;9.80;6.32;;;;;;;-11.06;87.10;101684.03;5077378;28;20043;-78
2021/12/08 11:36:16;;;;;;;11.15;4.50;;;;;;;-11.05;87.13;101686.56;5064016;28;20549;-76
2021/12/08 11:38:43;;;;;;;10.25;5.07;;;;;;;-11.03;87.30;101675.84;5049104;28;20033;-77
2021/12/08 11:41:22;;;;;;;10.00;5.20;;;;;;;-11.02;87.23;101683.69;5055062;28;20040;-76
2021/12/08 11:43:55;;;;;;;7.75;5.28;;;;;;;-11.02;87.17;101674.88;5087667;28;20090;-76
2021/12/08 11:46:22;;;;;;;11.93;5.82;;;;;;;-11.03;87.30;101687.28;5055671;28;20036;-75
2021/12/08 11:48:59;;;;;;;7.50;3.95;;;;;;;-11.06;87.16;101679.56;5052905;28;20594;-76
2021/12/08 11:51:25;;;;;;;5.03;3.85;;;;;;;-11.09;87.09;101687.75;5071388;28;20119;-76
2021/12/08 11:53:51;;;;;;;4.80;3.28;;;;;;;-11.10;87.35;101687.88;5052984;28;20563;-76
2021/12/08 11:56:36;;;;;;;4.32;2.75;;;;;;;-11.10;87.10;101687.88;5058022;28;20037;-72
2021/12/08 11:59:04;;;;;;;10.38;4.70;;;;;;;-11.09;87.17;101694.88;5055980;28;20179;-73
2021/12/08 12:01:29;;;;;;;5.80;3.30;;;;;;;-11.09;87.16;101698.38;5055627;28;20036;-72
2021/12/08 12:03:55;;;;;;;6.43;2.60;;;;;;;-11.08;87.46;101692.09;5055547;28;20128;-71
2021/12/08 12:06:28;;;;;;;3.00;2.70;;;;;;;-11.07;87.23;101698.25;5056464;28;20032;-74
2021/12/08 12:08:56;;;;;;;5.95;3.08;;;;;;;-11.07;87.17;101700.91;5060967;28;20033;-74
2021/12/08 12:11:25;;;;;;;2.13;1.40;;;;;;;-11.07;87.25;101711.50;5068432;28;20059;-77
2021/12/08 12:13:53;;;;;;;4.22;2.95;;;;;;;-11.06;87.17;101705.22;5088979;28;20099;-73
2021/12/08 12:16:18;;;;;;;3.33;2.05;;;;;;;-11.05;87.05;101714.88;5052943;28;20092;-73
2021/12/08 12:18:44;;;;;;;4.20;2.65;;;;;;;-11.06;87.25;101718.47;5053659;28;20119;-74
2021/12/08 12:21:34;;;;;;;3.67;2.30;;;;;;;-11.02;87.14;101720.78;5055157;28;20079;-74
2021/12/08 12:24:22;;;;;;;3.45;2.65;;;;;;;-10.99;87.22;101723.19;5049177;28;20392;-74
2021/12/08 12:26:53;;;;;;;3.28;2.55;;;;;;;-10.96;87.33;101724.75;5054223;28;20495;-75
2021/12/08 12:29:20;;;;;;;3.13;2.10;;;;;;;-10.92;87.25;101723.59;5065995;28;20036;-75
2021/12/08 12:32:03;;;;;;;4.18;2.78;;;;;;;-10.91;87.10;101725.28;5052343;28;20039;-76
2021/12/08 12:34:37;;;;;;;6.57;4.22;;;;;;;-10.89;87.33;101727.81;5069164;28;20037;-81